Time;durP1;ratioP1;P1;durP2;ratioP2;P2;SDS_P1;SDS_P2;PMS_P1;PMS_P2;Temp;Humidity;BMP_temperature;BMP_pressure;BME280_temperature;BME280_humidity;BME280_pressure;Samples;Min_cycle;Max_cycle;Signal;HPM_P1;HPM_P2
2022/10/09 00:01:36;;;;;;;8.30;3.00;;;9.60;99.90;;;;;;5075679;28;20215;-79
2022/10/09 00:04:05;;;;;;;3.80;2.77;;;9.60;99.90;;;;;;5087055;28;20235;-81
2022/10/09 00:06:34;;;;;;;5.60;2.60;;;9.60;99.90;;;;;;5096290;28;20203;-82
2022/10/09 00:09:03;;;;;;;3.53;2.63;;;9.50;99.90;;;;;;5087415;28;20215;-80
2022/10/09 00:11:32;;;;;;;7.43;3.03;;;9.50;99.90;;;;;;5076047;28;20478;-79
2022/10/09 00:14:02;;;;;;;5.97;3.33;;;9.40;99.90;;;;;;5076396;28;20205;-80
2022/10/09 00:16:29;;;;;;;5.00;2.97;;;9.40;99.90;;;;;;5076209;28;20189;-80
2022/10/09 00:18:56;;;;;;;7.10;4.03;;;9.30;99.90;;;;;;5076327;28;20190;-79
2022/10/09 00:21:26;;;;;;;7.27;4.30;;;9.30;99.90;;;;;;5075938;28;20672;-79
2022/10/09 00:23:55;;;;;;;8.47;5.73;;;9.30;99.90;;;;;;5075399;28;20201;-79
2022/10/09 00:26:22;;;;;;;11.23;7.97;;;9.20;99.90;;;;;;5076276;28;20203;-80
2022/10/09 00:28:50;;;;;;;10.77;6.63;;;9.20;99.90;;;;;;5076131;28;20208;-80
2022/10/09 00:31:17;;;;;;;10.93;7.10;;;9.20;99.90;;;;;;5075296;28;20197;-80
2022/10/09 00:33:44;;;;;;;9.63;6.90;;;9.20;99.90;;;;;;5076035;28;20205;-80
2022/10/09 00:36:13;;;;;;;11.13;7.67;;;9.20;99.90;;;;;;5075368;28;20204;-79
2022/10/09 00:38:42;;;;;;;12.10;7.30;;;9.20;99.90;;;;;;5084740;28;20755;-80
2022/10/09 00:41:12;;;;;;;12.23;7.43;;;9.20;99.90;;;;;;5095650;28;20623;-79
2022/10/09 00:43:45;;;;;;;8.50;5.90;;;9.10;99.90;;;;;;5089534;28;20201;-79
2022/10/09 00:46:34;;;;;;;7.83;5.30;;;9.10;99.90;;;;;;5087801;28;20199;-80
2022/10/09 00:49:15;;;;;;;7.17;4.73;;;9.10;99.90;;;;;;5095578;28;20302;-78
2022/10/09 00:51:45;;;;;;;7.53;4.60;;;9.00;99.90;;;;;;5093690;28;20203;-79
2022/10/09 00:54:16;;;;;;;5.33;4.10;;;9.00;99.90;;;;;;5095899;28;20195;-78
2022/10/09 00:56:43;;;;;;;7.63;4.67;;;9.00;99.90;;;;;;5088663;28;20233;-78
2022/10/09 00:59:11;;;;;;;7.40;4.53;;;9.00;99.90;;;;;;5074396;28;20503;-77
2022/10/09 01:01:39;;;;;;;4.17;3.27;;;9.00;99.90;;;;;;5074617;28;20516;-78
2022/10/09 01:04:06;;;;;;;6.83;3.93;;;9.00;99.90;;;;;;5074768;28;20197;-78
2022/10/09 01:06:46;;;;;;;6.83;3.37;;;8.90;99.90;;;;;;5074809;28;20197;-79
2022/10/09 01:09:19;;;;;;;5.53;3.63;;;8.90;99.90;;;;;;5074979;28;20193;-77
2022/10/09 01:11:52;;;;;;;6.97;4.07;;;8.90;99.90;;;;;;5074761;28;20198;-78
2022/10/09 01:14:25;;;;;;;6.60;3.73;;;8.80;99.90;;;;;;5074819;28;20491;-77
2022/10/09 01:16:58;;;;;;;6.60;3.70;;;8.80;99.90;;;;;;5074877;28;20198;-79
2022/10/09 01:19:39;;;;;;;7.07;3.90;;;8.80;99.90;;;;;;5074582;28;20189;-77
2022/10/09 01:22:19;;;;;;;6.07;3.47;;;8.80;99.90;;;;;;5075037;28;20196;-79
2022/10/09 01:24:54;;;;;;;6.57;3.70;;;8.70;99.90;;;;;;5074657;28;20200;-77
2022/10/09 01:27:24;;;;;;;8.03;3.43;;;8.70;99.90;;;;;;5073778;28;20444;-78
2022/10/09 01:29:55;;;;;;;7.13;3.83;;;8.70;99.90;;;;;;5074475;28;20194;-79
2022/10/09 01:32:32;;;;;;;8.47;3.70;;;8.70;99.90;;;;;;5085580;28;20219;-79
2022/10/09 01:35:01;;;;;;;7.03;3.80;;;8.70;99.90;;;;;;5095117;28;20196;-80
2022/10/09 01:37:30;;;;;;;4.87;3.10;;;8.70;99.90;;;;;;5094514;28;20204;-79
2022/10/09 01:39:58;;;;;;;5.73;3.43;;;8.70;99.90;;;;;;5093056;28;20236;-79
2022/10/09 01:42:28;;;;;;;5.23;3.47;;;8.60;99.90;;;;;;5088685;28;20235;-78
2022/10/09 01:44:55;;;;;;;7.77;3.97;;;8.60;99.90;;;;;;5074483;28;20232;-82
2022/10/09 01:47:22;;;;;;;6.37;4.37;;;8.60;99.90;;;;;;5073980;28;20284;-78
2022/10/09 01:49:54;;;;;;;5.07;3.00;;;8.50;99.90;;;;;;5074282;28;20208;-82
2022/10/09 01:52:29;;;;;;;9.43;4.10;;;8.50;99.90;;;;;;5074261;28;20225;-80
2022/10/09 01:55:11;;;;;;;4.93;3.03;;;8.50;99.90;;;;;;5073673;28;20205;-77
2022/10/09 01:57:45;;;;;;;5.50;3.37;;;8.50;99.90;;;;;;5079220;28;20327;-77
2022/10/09 02:00:13;;;;;;;4.10;2.83;;;8.50;99.90;;;;;;5094014;28;20209;-80
2022/10/09 02:02:42;;;;;;;5.80;3.57;;;8.50;99.90;;;;;;5094146;28;20205;-81
2022/10/09 02:05:10;;;;;;;6.87;3.27;;;8.50;99.90;;;;;;5079759;28;20205;-79
2022/10/09 02:07:37;;;;;;;5.07;3.50;;;8.50;99.90;;;;;;5073554;28;20292;-81
2022/10/09 02:10:07;;;;;;;4.57;2.93;;;8.40;99.90;;;;;;5073854;28;20276;-80
2022/10/09 02:12:38;;;;;;;6.03;3.43;;;8.50;99.90;;;;;;5073994;28;20205;-81
2022/10/09 02:15:08;;;;;;;5.10;3.17;;;8.40;99.90;;;;;;5073504;28;20593;-79
2022/10/09 02:17:39;;;;;;;6.27;3.30;;;8.40;99.90;;;;;;5073835;28;20201;-78
2022/10/09 02:20:12;;;;;;;5.97;3.47;;;8.40;99.90;;;;;;5073467;28;20629;-80
2022/10/09 02:22:39;;;;;;;6.37;4.50;;;8.40;99.90;;;;;;5073425;28;20276;-82
2022/10/09 02:25:07;;;;;;;5.60;3.60;;;8.40;99.90;;;;;;5073478;28;20197;-81
2022/10/09 02:27:34;;;;;;;8.40;4.67;;;8.40;99.90;;;;;;5073343;28;20212;-82
2022/10/09 02:30:01;;;;;;;5.70;3.97;;;8.40;99.90;;;;;;5073143;28;20522;-81
2022/10/09 02:32:30;;;;;;;7.60;4.33;;;8.40;99.90;;;;;;5073438;28;20244;-80
2022/10/09 02:34:56;;;;;;;6.10;3.57;;;8.40;99.90;;;;;;5073268;28;20272;-81
2022/10/09 02:37:23;;;;;;;6.30;3.47;;;8.30;99.90;;;;;;5072978;28;20198;-82
2022/10/09 02:39:50;;;;;;;4.13;3.30;;;8.30;99.90;;;;;;5073873;28;20245;-80
2022/10/09 02:42:17;;;;;;;5.23;3.20;;;8.30;99.90;;;;;;5072815;28;20557;-82
2022/10/09 02:44:44;;;;;;;6.90;3.63;;;8.30;99.90;;;;;;5073101;28;20208;-81
2022/10/09 02:47:11;;;;;;;8.67;4.47;;;8.30;99.90;;;;;;5073389;28;20288;-80
2022/10/09 02:49:39;;;;;;;4.30;3.00;;;8.20;99.90;;;;;;5073271;28;20297;-79
2022/10/09 02:52:06;;;;;;;4.60;3.23;;;8.20;99.90;;;;;;5073542;28;20200;-79
2022/10/09 02:54:33;;;;;;;6.37;3.27;;;8.20;99.90;;;;;;5072748;28;20201;-79
2022/10/09 02:57:00;;;;;;;4.90;3.10;;;8.20;99.90;;;;;;5072210;28;20637;-79
2022/10/09 02:59:27;;;;;;;6.33;3.77;;;8.20;99.90;;;;;;5073022;28;20232;-82
2022/10/09 03:01:54;;;;;;;3.93;2.70;;;8.20;99.90;;;;;;5073063;28;20243;-81
2022/10/09 03:04:21;;;;;;;5.97;3.67;;;8.20;99.90;;;;;;5072314;28;20824;-81
2022/10/09 03:06:49;;;;;;;5.43;3.37;;;8.20;99.90;;;;;;5073417;28;20219;-80
2022/10/09 03:09:16;;;;;;;8.77;3.50;;;8.30;99.90;;;;;;5072877;28;20521;-79
2022/10/09 03:11:43;;;;;;;5.13;3.60;;;8.30;99.90;;;;;;5072623;28;20197;-80
2022/10/09 03:14:10;;;;;;;7.50;3.53;;;8.30;99.90;;;;;;5072733;28;20193;-80
2022/10/09 03:16:36;;;;;;;5.07;3.37;;;8.30;99.90;;;;;;5072616;28;20578;-81
2022/10/09 03:19:03;;;;;;;6.17;3.50;;;8.30;99.90;;;;;;5077030;28;20201;-82
2022/10/09 03:21:30;;;;;;;7.90;3.60;;;8.30;99.90;;;;;;5093238;28;20219;-79
2022/10/09 03:23:59;;;;;;;4.87;3.10;;;8.30;99.90;;;;;;5093251;28;20512;-80
2022/10/09 03:26:27;;;;;;;4.73;3.50;;;8.30;99.90;;;;;;5090289;28;20370;-79
2022/10/09 03:28:55;;;;;;;7.57;3.70;;;8.30;99.90;;;;;;5073558;28;20293;-79
2022/10/09 03:31:24;;;;;;;7.00;3.23;;;8.20;99.90;;;;;;5072027;28;20502;-80
2022/10/09 03:33:51;;;;;;;6.50;3.77;;;8.20;99.90;;;;;;5072287;28;20197;-82
2022/10/09 03:36:18;;;;;;;5.77;3.50;;;8.20;99.90;;;;;;5072477;28;20300;-82
2022/10/09 03:38:45;;;;;;;6.97;3.90;;;8.20;99.90;;;;;;5072667;28;20605;-81
2022/10/09 03:41:13;;;;;;;4.20;3.80;;;8.20;99.90;;;;;;5072166;28;20288;-81
2022/10/09 03:43:40;;;;;;;4.50;3.37;;;8.20;99.90;;;;;;5072706;28;20618;-81
2022/10/09 03:46:07;;;;;;;5.93;3.53;;;8.20;99.90;;;;;;5072003;28;20212;-81
2022/10/09 03:48:35;;;;;;;5.17;3.20;;;8.20;99.90;;;;;;5072362;28;20273;-80
2022/10/09 03:51:02;;;;;;;5.97;3.30;;;8.20;99.90;;;;;;5072249;28;20201;-82
2022/10/09 03:53:29;;;;;;;6.57;3.50;;;8.20;99.90;;;;;;5071937;28;20201;-80
2022/10/09 03:55:55;;;;;;;7.93;3.50;;;8.20;99.90;;;;;;5072557;28;20201;-80
2022/10/09 03:58:24;;;;;;;4.93;3.30;;;8.20;99.90;;;;;;5072647;28;20203;-80
2022/10/09 04:00:52;;;;;;;4.87;3.47;;;8.20;99.90;;;;;;5072052;28;20308;-80
2022/10/09 04:03:19;;;;;;;7.00;3.70;;;8.20;99.90;;;;;;5072562;28;20559;-80
2022/10/09 04:05:46;;;;;;;4.27;3.20;;;8.20;99.90;;;;;;5072413;28;20212;-80
2022/10/09 04:08:13;;;;;;;5.13;3.53;;;8.20;99.90;;;;;;5072200;28;20207;-79
2022/10/09 04:10:40;;;;;;;5.80;3.27;;;8.20;99.90;;;;;;5079338;28;20248;-81
2022/10/09 04:13:07;;;;;;;3.77;3.23;;;8.20;99.90;;;;;;5092289;28;20207;-78
2022/10/09 04:15:36;;;;;;;3.50;3.20;;;8.20;99.90;;;;;;5091279;28;20200;-80
2022/10/09 04:18:03;;;;;;;7.17;3.07;;;8.20;99.90;;;;;;5092286;28;20205;-77
2022/10/09 04:20:30;;;;;;;3.47;2.80;;;8.20;99.90;;;;;;5078959;28;20284;-78
2022/10/09 04:22:57;;;;;;;5.07;3.43;;;8.20;99.90;;;;;;5070823;28;20194;-77
2022/10/09 04:25:24;;;;;;;4.23;3.60;;;8.20;99.90;;;;;;5071386;28;20218;-76
2022/10/09 04:27:51;;;;;;;5.37;3.93;;;8.20;99.90;;;;;;5080131;28;20258;-77
2022/10/09 04:30:18;;;;;;;7.03;3.50;;;8.20;99.90;;;;;;5090987;28;20205;-78
2022/10/09 04:32:47;;;;;;;4.90;3.30;;;8.20;99.90;;;;;;5084512;28;20207;-77
2022/10/09 04:35:14;;;;;;;5.23;3.60;;;8.20;99.90;;;;;;5070755;28;20555;-77
2022/10/09 04:37:40;;;;;;;4.00;3.17;;;8.20;99.90;;;;;;5071449;28;20668;-76
2022/10/09 04:40:08;;;;;;;7.77;3.53;;;8.10;99.90;;;;;;5070976;28;20236;-77
2022/10/09 04:42:35;;;;;;;8.13;3.93;;;8.10;99.90;;;;;;5072533;28;20213;-75
2022/10/09 04:45:02;;;;;;;5.63;3.80;;;8.10;99.90;;;;;;5074897;28;20200;-77
2022/10/09 04:47:29;;;;;;;5.23;3.70;;;8.20;99.90;;;;;;5075037;28;20208;-77
2022/10/09 04:49:58;;;;;;;4.70;3.87;;;8.10;99.90;;;;;;5074703;28;20212;-78
2022/10/09 04:52:25;;;;;;;8.13;4.13;;;8.10;99.90;;;;;;5074953;28;20197;-77
2022/10/09 04:54:52;;;;;;;6.47;3.90;;;8.10;99.90;;;;;;5075295;28;20239;-77
2022/10/09 04:57:19;;;;;;;6.60;4.13;;;8.10;99.90;;;;;;5074600;28;20765;-79
2022/10/09 04:59:46;;;;;;;7.10;4.23;;;8.10;99.90;;;;;;5074961;28;20198;-76
2022/10/09 05:02:12;;;;;;;7.27;4.23;;;8.10;99.90;;;;;;5074983;28;20518;-76
2022/10/09 05:04:39;;;;;;;5.60;4.33;;;8.10;99.90;;;;;;5074215;28;20201;-77
2022/10/09 05:07:07;;;;;;;6.27;4.37;;;8.00;99.90;;;;;;5074604;28;20202;-77
2022/10/09 05:09:34;;;;;;;5.57;4.07;;;8.00;99.90;;;;;;5074687;28;20213;-77
2022/10/09 05:12:01;;;;;;;6.60;4.07;;;8.00;99.90;;;;;;5073844;28;20300;-76
2022/10/09 05:14:28;;;;;;;6.43;3.70;;;8.00;99.90;;;;;;5074284;28;20620;-76
2022/10/09 05:16:56;;;;;;;6.17;3.63;;;8.00;99.90;;;;;;5074292;28;20316;-77
2022/10/09 05:19:23;;;;;;;5.67;3.70;;;8.00;99.90;;;;;;5074081;28;20201;-77
2022/10/09 05:21:49;;;;;;;4.13;3.30;;;7.90;99.90;;;;;;5075118;28;20217;-79
2022/10/09 05:24:18;;;;;;;8.13;4.43;;;7.90;99.90;;;;;;5074630;28;20647;-79
2022/10/09 05:26:44;;;;;;;8.37;4.37;;;7.90;99.90;;;;;;5074422;28;20508;-77
2022/10/09 05:29:11;;;;;;;7.27;4.53;;;7.90;99.90;;;;;;5075396;28;20301;-78
2022/10/09 05:31:38;;;;;;;6.83;4.50;;;7.90;99.90;;;;;;5074234;28;20194;-78
2022/10/09 05:34:05;;;;;;;6.90;4.37;;;7.90;99.90;;;;;;5074384;28;20201;-80
2022/10/09 05:36:32;;;;;;;7.80;4.30;;;8.00;99.90;;;;;;5074524;28;20292;-76
2022/10/09 05:39:00;;;;;;;7.73;4.47;;;8.00;99.90;;;;;;5074105;28;20204;-76
2022/10/09 05:41:29;;;;;;;6.60;5.13;;;8.00;99.90;;;;;;5074606;28;20240;-79
2022/10/09 05:44:00;;;;;;;9.47;4.90;;;8.10;99.90;;;;;;5074312;28;20205;-79
2022/10/09 05:46:28;;;;;;;5.80;4.23;;;8.10;99.90;;;;;;5073904;28;20231;-79
2022/10/09 05:48:57;;;;;;;8.20;4.73;;;8.10;99.90;;;;;;5074732;28;20322;-78
2022/10/09 05:51:26;;;;;;;9.77;5.07;;;8.10;99.90;;;;;;5089401;28;20195;-78
2022/10/09 05:53:55;;;;;;;7.47;5.20;;;8.10;99.90;;;;;;5072774;28;20212;-79
2022/10/09 05:56:24;;;;;;;9.17;5.20;;;8.10;99.90;;;;;;5074192;28;20698;-80
2022/10/09 05:58:54;;;;;;;5.50;4.60;;;8.20;99.90;;;;;;5074302;28;20200;-78
2022/10/09 06:01:22;;;;;;;7.37;4.57;;;8.20;99.90;;;;;;5077833;28;20206;-79
2022/10/09 06:03:50;;;;;;;6.27;4.77;;;8.20;99.90;;;;;;5073512;28;20193;-80
2022/10/09 06:06:19;;;;;;;7.87;4.60;;;8.20;99.90;;;;;;5074134;28;20201;-79
2022/10/09 06:08:46;;;;;;;5.53;4.07;;;8.20;99.90;;;;;;5073736;28;20193;-79
2022/10/09 06:11:15;;;;;;;6.93;4.20;;;8.10;99.90;;;;;;5074003;28;20232;-79
2022/10/09 06:13:43;;;;;;;7.37;4.53;;;8.10;99.90;;;;;;5073006;28;20207;-79
2022/10/09 06:16:13;;;;;;;7.17;4.53;;;8.10;99.90;;;;;;5073558;28;20292;-78
2022/10/09 06:18:42;;;;;;;9.37;5.30;;;8.10;99.90;;;;;;5074029;28;20197;-79
2022/10/09 06:21:09;;;;;;;10.23;5.70;;;8.20;99.90;;;;;;5073374;28;20205;-78
2022/10/09 06:23:36;;;;;;;9.27;6.10;;;8.20;99.90;;;;;;5073772;28;20284;-78
2022/10/09 06:26:06;;;;;;;14.43;6.43;;;8.20;99.90;;;;;;5073824;28;20217;-79
2022/10/09 06:28:33;;;;;;;9.23;5.67;;;8.30;99.90;;;;;;5074160;28;20204;-79
2022/10/09 06:31:02;;;;;;;12.63;6.30;;;8.30;99.90;;;;;;5093711;28;20192;-80
2022/10/09 06:33:31;;;;;;;11.27;6.20;;;8.30;99.90;;;;;;5094364;28;20204;-79
2022/10/09 06:36:02;;;;;;;9.83;5.47;;;8.40;99.90;;;;;;5084030;28;20209;-80
2022/10/09 06:38:29;;;;;;;10.07;5.53;;;8.40;99.90;;;;;;5074070;28;20225;-80
2022/10/09 06:41:01;;;;;;;12.00;5.90;;;8.40;99.90;;;;;;5073440;28;20535;-80
2022/10/09 06:43:28;;;;;;;10.00;5.63;;;8.40;99.90;;;;;;5088619;28;20235;-78
2022/10/09 06:45:55;;;;;;;11.57;6.07;;;8.40;99.90;;;;;;5073219;28;20601;-79
2022/10/09 06:48:23;;;;;;;11.93;7.07;;;8.50;99.90;;;;;;5085627;28;20283;-77
2022/10/09 06:50:51;;;;;;;15.33;6.87;;;8.50;99.90;;;;;;5088311;28;21050;-77
2022/10/09 06:53:18;;;;;;;11.57;7.00;;;8.50;99.90;;;;;;5092176;28;20209;-78
2022/10/09 06:55:52;;;;;;;11.87;7.07;;;8.60;99.90;;;;;;5080454;28;20224;-78
2022/10/09 06:58:19;;;;;;;12.23;7.40;;;8.60;99.90;;;;;;5084169;28;20205;-79
2022/10/09 07:00:46;;;;;;;11.43;7.40;;;8.60;99.90;;;;;;5092846;28;20211;-77
2022/10/09 07:03:13;;;;;;;9.70;7.10;;;8.70;99.90;;;;;;5086340;28;20235;-79
2022/10/09 07:05:40;;;;;;;15.47;8.80;;;8.70;99.90;;;;;;5092233;28;20593;-79
2022/10/09 07:08:08;;;;;;;14.13;7.53;;;8.80;99.90;;;;;;5092655;28;20193;-80
2022/10/09 07:10:35;;;;;;;12.13;8.17;;;8.80;99.90;;;;;;5076110;28;20636;-77
2022/10/09 07:13:01;;;;;;;15.73;8.80;;;8.80;99.90;;;;;;5071266;28;20207;-80
2022/10/09 07:15:28;;;;;;;19.87;9.50;;;8.90;99.90;;;;;;5072454;28;20223;-78
2022/10/09 07:17:55;;;;;;;16.00;9.20;;;8.90;99.90;;;;;;5070413;28;20211;-78
2022/10/09 07:20:22;;;;;;;12.70;9.00;;;9.00;99.90;;;;;;5071624;28;20293;-80
2022/10/09 07:22:49;;;;;;;16.73;8.63;;;9.00;99.90;;;;;;5071375;28;20682;-79
2022/10/09 07:25:17;;;;;;;13.73;8.23;;;9.00;99.90;;;;;;5071433;28;20643;-77
2022/10/09 07:27:44;;;;;;;10.43;7.77;;;9.00;99.90;;;;;;5072132;28;20208;-79
2022/10/09 07:30:12;;;;;;;13.43;8.03;;;9.10;99.90;;;;;;5071967;28;20399;-77
2022/10/09 07:32:38;;;;;;;12.03;7.90;;;9.10;99.90;;;;;;5071957;28;20204;-80
2022/10/09 07:35:06;;;;;;;11.10;7.70;;;9.20;99.90;;;;;;5072083;28;20612;-78
2022/10/09 07:37:33;;;;;;;15.27;7.60;;;9.20;99.90;;;;;;5072064;28;20208;-78
2022/10/09 07:39:59;;;;;;;14.97;8.00;;;9.30;99.90;;;;;;5071336;28;20599;-79
2022/10/09 07:42:28;;;;;;;13.07;7.90;;;9.30;99.90;;;;;;5071944;28;20740;-78
2022/10/09 07:44:55;;;;;;;13.13;6.60;;;9.40;99.90;;;;;;5072389;28;20194;-80
2022/10/09 07:47:21;;;;;;;17.67;7.07;;;9.40;99.90;;;;;;5072100;28;20208;-79
2022/10/09 07:49:48;;;;;;;12.07;7.73;;;9.50;99.90;;;;;;5071912;28;20189;-78
2022/10/09 07:52:15;;;;;;;10.40;7.33;;;9.50;99.90;;;;;;5071247;28;20703;-78
2022/10/09 07:54:42;;;;;;;12.93;7.27;;;9.60;99.90;;;;;;5071377;28;20224;-79
2022/10/09 07:57:09;;;;;;;11.63;6.13;;;9.60;99.90;;;;;;5071763;28;20212;-78
2022/10/09 07:59:37;;;;;;;14.33;7.13;;;9.60;99.90;;;;;;5070950;28;20200;-78
2022/10/09 08:02:04;;;;;;;15.23;6.50;;;9.70;99.90;;;;;;5071626;28;20221;-77
2022/10/09 08:04:30;;;;;;;12.17;7.17;;;9.70;99.90;;;;;;5077946;28;20215;-78
2022/10/09 08:06:58;;;;;;;10.93;5.77;;;9.80;99.90;;;;;;5074018;28;20586;-77
2022/10/09 08:09:25;;;;;;;14.63;6.10;;;9.80;99.90;;;;;;5071605;28;20292;-79
2022/10/09 08:11:52;;;;;;;14.70;6.87;;;9.90;99.90;;;;;;5089511;28;20211;-78
2022/10/09 08:14:19;;;;;;;13.33;6.23;;;9.90;99.90;;;;;;5089293;28;20193;-78
2022/10/09 08:16:47;;;;;;;13.27;6.40;;;10.00;99.90;;;;;;5092606;28;20207;-78
2022/10/09 08:19:14;;;;;;;13.47;7.17;;;10.00;99.90;;;;;;5085668;28;20219;-78
2022/10/09 08:21:41;;;;;;;12.43;6.50;;;10.10;99.90;;;;;;5074791;28;20476;-78
2022/10/09 08:24:10;;;;;;;7.80;6.20;;;10.20;99.90;;;;;;5075802;28;20207;-79
2022/10/09 08:26:37;;;;;;;14.50;6.07;;;10.30;99.90;;;;;;5075639;28;20650;-78
2022/10/09 08:29:05;;;;;;;15.03;5.63;;;10.30;99.90;;;;;;5074904;28;20211;-78
2022/10/09 08:31:32;;;;;;;10.70;5.93;;;10.40;99.90;;;;;;5075262;28;20216;-77
2022/10/09 08:34:03;;;;;;;11.47;5.77;;;10.50;99.90;;;;;;5075677;28;20201;-77
2022/10/09 08:36:30;;;;;;;13.03;5.10;;;10.60;99.90;;;;;;5083975;28;20193;-78
2022/10/09 08:38:57;;;;;;;14.90;5.90;;;10.70;99.90;;;;;;5094796;28;20662;-78
2022/10/09 08:41:39;;;;;;;12.00;5.83;;;10.70;99.90;;;;;;5094788;28;20324;-78
2022/10/09 08:44:13;;;;;;;14.23;5.93;;;10.80;99.90;;;;;;5089824;28;20618;-78
2022/10/09 08:46:51;;;;;;;11.30;4.80;;;10.90;99.90;;;;;;5075157;28;20232;-78
2022/10/09 08:49:26;;;;;;;10.40;4.87;;;11.00;99.90;;;;;;5074568;28;20220;-78
2022/10/09 08:51:55;;;;;;;7.20;4.00;;;11.10;99.90;;;;;;5074895;28;20196;-77
2022/10/09 08:54:30;;;;;;;11.47;4.33;;;11.20;99.90;;;;;;5075046;28;20502;-78
2022/10/09 08:57:00;;;;;;;9.43;4.03;;;11.30;99.90;;;;;;5074358;28;20652;-79
2022/10/09 08:59:27;;;;;;;8.50;3.97;;;11.40;99.90;;;;;;5075729;28;20197;-78
2022/10/09 09:02:05;;;;;;;11.47;4.37;;;11.50;99.90;;;;;;5074841;28;20534;-77
2022/10/09 09:04:50;;;;;;;9.70;3.50;;;11.50;99.90;;;;;;5074162;28;20217;-77
2022/10/09 09:07:27;;;;;;;13.83;3.43;;;11.60;99.90;;;;;;5074464;28;20197;-78
2022/10/09 09:09:59;;;;;;;9.53;3.70;;;11.70;99.90;;;;;;5073976;28;20223;-77
2022/10/09 09:12:33;;;;;;;7.43;3.43;;;11.80;99.90;;;;;;5074319;28;20743;-79
2022/10/09 09:15:15;;;;;;;11.57;4.47;;;11.90;99.90;;;;;;5074494;28;20205;-78
2022/10/09 09:17:51;;;;;;;9.87;3.60;;;12.00;99.90;;;;;;5073617;28;20178;-78
2022/10/09 09:20:24;;;;;;;12.87;3.77;;;12.10;99.90;;;;;;5074273;28;20203;-78
2022/10/09 09:22:51;;;;;;;9.63;3.47;;;12.20;99.90;;;;;;5081737;28;20212;-78
2022/10/09 09:25:21;;;;;;;13.07;3.70;;;12.30;99.90;;;;;;5093933;28;20196;-77
2022/10/09 09:27:48;;;;;;;7.13;3.80;;;12.40;99.90;;;;;;5084654;28;20198;-77
2022/10/09 09:30:19;;;;;;;9.93;3.00;;;12.50;99.90;;;;;;5093591;28;20201;-78
2022/10/09 09:32:55;;;;;;;7.80;3.40;;;12.70;99.90;;;;;;5093538;28;20191;-78
2022/10/09 09:35:32;;;;;;;8.77;3.10;;;12.80;99.90;;;;;;5091320;28;20265;-78
2022/10/09 09:37:59;;;;;;;6.90;2.83;;;12.90;99.90;;;;;;5091506;28;20200;-77
2022/10/09 09:40:32;;;;;;;7.27;2.93;;;13.00;99.90;;;;;;5091673;28;20228;-77
2022/10/09 09:43:00;;;;;;;9.60;3.13;;;13.20;99.90;;;;;;5086911;28;20220;-78
2022/10/09 09:45:28;;;;;;;10.93;3.50;;;13.30;99.90;;;;;;5093228;28;20199;-78
2022/10/09 09:47:59;;;;;;;11.10;2.80;;;13.40;99.90;;;;;;5093827;28;20292;-77
2022/10/09 09:50:33;;;;;;;8.43;2.90;;;13.50;99.90;;;;;;5080952;28;20197;-78
2022/10/09 09:53:05;;;;;;;10.33;2.90;;;13.60;99.90;;;;;;5072885;28;20200;-77
2022/10/09 09:55:33;;;;;;;8.60;2.70;;;13.80;99.90;;;;;;5081093;28;20201;-77
2022/10/09 09:58:02;;;;;;;7.07;2.50;;;13.80;99.90;;;;;;5093505;28;20223;-78
2022/10/09 10:00:29;;;;;;;6.43;2.50;;;14.00;99.90;;;;;;5092644;28;20283;-78
2022/10/09 10:03:09;;;;;;;6.83;2.47;;;14.10;99.90;;;;;;5075795;28;20221;-78
2022/10/09 10:05:38;;;;;;;7.40;2.27;;;14.20;99.90;;;;;;5073120;28;20289;-77
2022/10/09 10:08:22;;;;;;;6.90;2.60;;;14.30;99.90;;;;;;5077756;28;20200;-78
2022/10/09 10:10:50;;;;;;;6.22;2.35;;;14.40;99.90;;;;;;5093921;28;20208;-78
2022/10/09 10:13:20;;;;;;;12.53;2.40;;;14.60;99.90;;;;;;5092819;28;20193;-80
2022/10/09 10:15:53;;;;;;;7.77;2.50;;;14.70;99.90;;;;;;5087886;28;20592;-79
2022/10/09 10:18:22;;;;;;;9.40;2.75;;;14.80;99.90;;;;;;5109245;28;20211;-79
2022/10/09 10:20:53;;;;;;;5.80;2.60;;;14.90;94.80;;;;;;5113242;28;20210;-80
2022/10/09 10:23:31;;;;;;;12.85;2.55;;;14.90;74.80;;;;;;5100384;28;20224;-79
2022/10/09 10:26:01;;;;;;;4.82;2.30;;;15.00;71.40;;;;;;5073104;28;20185;-79
2022/10/09 10:28:35;;;;;;;4.37;2.40;;;15.10;30.90;;;;;;5080667;28;20419;-80
2022/10/09 10:31:05;;;;;;;8.05;2.72;;;15.10;1.00;;;;;;5073201;28;20189;-80
2022/10/09 10:33:35;;;;;;;7.22;2.55;;;15.20;41.50;;;;;;5071842;28;20197;-79
2022/10/09 10:36:04;;;;;;;7.47;2.70;;;15.30;10.10;;;;;;5071466;28;20197;-77
2022/10/09 10:38:35;;;;;;;5.70;2.30;;;15.40;10.50;;;;;;5072841;28;20208;-77
2022/10/09 10:41:11;;;;;;;7.00;2.92;;;15.50;47.50;;;;;;5071186;28;20248;-78
2022/10/09 10:43:43;;;;;;;11.30;3.28;;;15.70;7.00;;;;;;5071947;28;20240;-80
2022/10/09 10:46:21;;;;;;;6.72;3.00;;;15.70;1.00;;;;;;5073006;28;20202;-81
2022/10/09 10:48:49;;;;;;;5.10;2.50;;;15.80;1.00;;;;;;5072288;28;20280;-79
2022/10/09 10:51:52;;;;;;;6.00;2.88;;;15.80;1.00;;;;;;5072468;28;20544;-78
2022/10/09 10:54:35;;;;;;;5.95;2.58;;;15.80;1.00;;;;;;5072408;28;20209;-79
2022/10/09 10:57:10;;;;;;;5.47;2.53;;;15.80;1.00;;;;;;5071883;28;20578;-79
2022/10/09 10:59:40;;;;;;;6.93;2.70;;;15.90;1.00;;;;;;5072614;28;20276;-79
2022/10/09 11:02:34;;;;;;;7.80;2.88;;;16.00;1.00;;;;;;5072316;28;20239;-80
2022/10/09 11:05:15;;;;;;;5.55;2.63;;;16.10;1.00;;;;;;5070800;28;20225;-79
2022/10/09 11:07:49;;;;;;;5.95;2.53;;;16.20;1.00;;;;;;5072563;28;20508;-81
2022/10/09 11:10:26;;;;;;;8.00;2.47;;;16.40;1.00;;;;;;5071712;28;20212;-80
2022/10/09 11:13:04;;;;;;;5.43;2.30;;;16.40;1.00;;;;;;5081239;28;20497;-78
2022/10/09 11:15:37;;;;;;;8.48;2.35;;;16.50;1.00;;;;;;5092371;28;20596;-80
2022/10/09 11:18:19;;;;;;;10.20;2.60;;;16.60;1.00;;;;;;5075957;28;20197;-80
2022/10/09 11:21:04;;;;;;;9.52;2.92;;;16.60;1.00;;;;;;5071555;28;20250;-78
2022/10/09 11:23:46;;;;;;;7.20;2.60;;;16.70;1.00;;;;;;5070164;28;20856;-78
2022/10/09 11:26:25;;;;;;;7.40;2.10;;;16.70;1.00;;;;;;5071726;28;20653;-80
2022/10/09 11:28:58;;;;;;;8.43;2.42;;;16.70;1.00;;;;;;5072165;28;20199;-79
2022/10/09 11:31:32;;;;;;;8.55;2.90;;;16.70;99.90;;;;;;5071346;28;20192;-79
2022/10/09 11:34:03;;;;;;;7.53;2.35;;;16.80;1.00;;;;;;5092326;28;20196;-79
2022/10/09 11:36:34;;;;;;;5.18;2.05;;;16.80;99.90;;;;;;5092164;28;20203;-80
2022/10/09 11:39:05;;;;;;;5.35;2.05;;;16.90;1.00;;;;;;5081480;28;20205;-80
2022/10/09 11:41:35;;;;;;;8.52;2.58;;;16.80;1.00;;;;;;5071257;28;20233;-80
2022/10/09 11:44:19;;;;;;;6.22;2.20;;;16.90;1.00;;;;;;5071559;28;20212;-78
2022/10/09 11:46:54;;;;;;;6.28;2.20;;;17.00;1.00;;;;;;5071820;28;20770;-78
2022/10/09 11:49:25;;;;;;;9.27;2.58;;;17.20;99.90;;;;;;5072113;28;20192;-78
2022/10/09 11:51:59;;;;;;;11.88;2.42;;;17.30;99.90;;;;;;5070288;28;20189;-80
2022/10/09 11:54:28;;;;;;;5.80;2.05;;;17.50;99.90;;;;;;5070572;28;20188;-78
2022/10/09 11:56:58;;;;;;;9.32;2.40;;;17.60;66.20;;;;;;5077572;28;20223;-78
2022/10/09 11:59:29;;;;;;;5.85;2.50;;;17.20;99.90;;;;;;5075457;28;20292;-80
2022/10/09 12:01:57;;;;;;;6.45;2.20;;;17.10;1.00;;;;;;5070067;28;20292;-79
2022/10/09 12:04:32;;;;;;;6.60;1.98;;;17.20;1.00;;;;;;5070942;28;20227;-79
2022/10/09 12:07:01;;;;;;;4.53;1.88;;;17.20;1.00;;;;;;5086334;28;20612;-79
2022/10/09 12:09:30;;;;;;;5.32;1.73;;;17.30;1.00;;;;;;5091142;28;20216;-78
2022/10/09 12:12:02;;;;;;;6.15;2.17;;;17.40;1.00;;;;;;5091097;28;20208;-79
2022/10/09 12:14:30;;;;;;;6.82;1.98;;;17.60;99.90;;;;;;5084404;28;20722;-79
2022/10/09 12:16:58;;;;;;;6.60;2.15;;;17.70;1.00;;;;;;5090903;28;20216;-79
2022/10/09 12:19:27;;;;;;;6.50;2.33;;;17.70;1.00;;;;;;5087614;28;20213;-79
2022/10/09 12:22:02;;;;;;;7.63;2.58;;;17.70;1.00;;;;;;5091132;28;20510;-79
2022/10/09 12:24:33;;;;;;;5.75;1.52;;;17.50;1.00;;;;;;5090409;28;20615;-78
2022/10/09 12:27:03;;;;;;;5.25;1.92;;;17.50;1.00;;;;;;5089627;28;20200;-80
2022/10/09 12:29:34;;;;;;;4.75;1.77;;;17.50;99.90;;;;;;5085355;28;20214;-79
2022/10/09 12:32:06;;;;;;;8.68;1.90;;;17.40;1.00;;;;;;5086002;28;20258;-79
2022/10/09 12:34:37;;;;;;;6.35;2.58;;;17.40;48.20;;;;;;5088858;28;20201;-79
2022/10/09 12:37:15;;;;;;;7.45;2.50;;;17.40;1.00;;;;;;5084702;28;20621;-79
2022/10/09 12:39:42;;;;;;;3.67;1.85;;;17.40;99.90;;;;;;5090465;28;20197;-79
2022/10/09 12:42:17;;;;;;;6.80;1.90;;;17.40;99.90;;;;;;5089898;28;20653;-79
2022/10/09 12:44:46;;;;;;;5.55;2.30;;;17.40;1.00;;;;;;5090740;28;20216;-79
2022/10/09 12:47:21;;;;;;;3.45;2.05;;;17.30;1.00;;;;;;5083937;28;20197;-78
2022/10/09 12:50:00;;;;;;;6.65;2.10;;;17.10;1.00;;;;;;5089975;28;20387;-79
2022/10/09 12:52:28;;;;;;;9.23;2.45;;;17.20;1.00;;;;;;5090874;28;20209;-79
2022/10/09 12:54:55;;;;;;;4.90;1.83;;;17.10;1.00;;;;;;5087363;28;20200;-78
2022/10/09 12:57:25;;;;;;;5.57;2.35;;;17.00;1.00;;;;;;5090260;28;20406;-81
2022/10/09 12:59:52;;;;;;;4.55;2.00;;;16.80;1.00;;;;;;5090277;28;20204;-77
2022/10/09 13:02:20;;;;;;;6.07;2.00;;;16.90;1.00;;;;;;5089699;28;20208;-78
2022/10/09 13:04:59;;;;;;;4.80;1.88;;;17.00;99.90;;;;;;5093422;28;20217;-79
2022/10/09 13:07:28;;;;;;;4.43;1.88;;;17.00;1.00;;;;;;5089418;28;20204;-79